Terminal Aerodrome Forecast
Issued by NWS

Home | Current Version | Previous Version | Text Only | Print | Product List | Glossary Off
Versions: 1 2 3 4 5 6 7 8 9 10 11 12 13 14

000
FTUS43 KFGF 260947 AAB
TAFBJI
TAF AMD
KBJI 260947Z 2610/2706 VRB03KT P6SM SCT250
      TEMPO 2610/2613 1/2SM FG VV003
     FM261500 18003KT P6SM SCT110=

USA.gov is the U.S. government's official web portal to all federal, state and local government web resources and services.